createdAt,value
2019-04-28T00:04:49.112Z,22.10
2019-04-28T00:09:51.177Z,22.97
2019-04-28T00:14:53.131Z,22.33
2019-04-28T00:19:56.739Z,22.17
2019-04-28T00:25:09.180Z,21.47
2019-04-28T00:30:12.889Z,21.23
2019-04-28T00:35:16.654Z,21.30
2019-04-28T00:40:18.779Z,18.97
2019-04-28T00:45:21.485Z,19.17
2019-04-28T00:50:23.847Z,20.57
2019-04-28T00:55:25.563Z,19.00
2019-04-28T01:00:29.111Z,20.33
2019-04-28T01:05:31.239Z,20.10
2019-04-28T01:10:33.267Z,21.07
2019-04-28T01:15:39.859Z,21.80
2019-04-28T01:20:42.767Z,22.07
2019-04-28T01:25:45.071Z,23.03
2019-04-28T01:30:51.556Z,23.73
2019-04-28T01:35:53.911Z,23.60
2019-04-28T01:40:57.422Z,23.67
2019-04-28T01:46:00.164Z,25.27
2019-04-28T01:51:03.353Z,22.57
2019-04-28T01:56:05.400Z,24.83
2019-04-28T02:01:07.225Z,24.33
2019-04-28T02:06:10.040Z,23.50
2019-04-28T02:11:12.021Z,23.60
2019-04-28T02:16:13.970Z,23.20
2019-04-28T02:21:17.491Z,22.90
2019-04-28T02:26:19.619Z,24.50
2019-04-28T02:31:24.408Z,24.70
2019-04-28T02:36:24.797Z,24.53
2019-04-28T02:41:26.408Z,23.40
2019-04-28T02:46:30.674Z,24.13
2019-04-28T02:51:36.975Z,24.53
2019-04-28T02:56:40.891Z,24.73
2019-04-28T03:01:42.148Z,24.27
2019-04-28T03:06:44.263Z,25.57
2019-04-28T03:11:46.182Z,24.43
2019-04-28T03:16:50.806Z,26.67
2019-04-28T03:21:51.783Z,26.03
2019-04-28T03:26:56.395Z,25.40
2019-04-28T03:32:28.066Z,25.70
2019-04-28T03:37:11.283Z,26.10
2019-04-28T03:42:13.269Z,24.97
2019-04-28T03:47:23.588Z,26.07
2019-04-28T03:52:25.255Z,24.80
2019-04-28T03:57:26.876Z,24.53
2019-04-28T04:02:31.041Z,25.33
2019-04-28T04:07:32.050Z,26.20
2019-04-28T04:12:44.508Z,26.87
2019-04-28T04:18:04.989Z,26.93
2019-04-28T04:23:06.754Z,27.07
2019-04-28T04:28:10.512Z,27.17
2019-04-28T04:33:11.864Z,26.43
2019-04-28T04:38:13.480Z,27.53
2019-04-28T04:43:15.119Z,25.80
2019-04-28T04:48:26.626Z,27.03
2019-04-28T04:53:30.802Z,27.63
2019-04-28T04:58:34.539Z,28.20
2019-04-28T05:03:39.692Z,27.40
2019-04-28T05:08:41.491Z,27.70
2019-04-28T05:13:43.103Z,27.07
2019-04-28T05:18:44.822Z,27.70
2019-04-28T05:23:52.213Z,28.03
2019-04-28T05:28:53.813Z,27.97
2019-04-28T05:33:55.422Z,26.90
2019-04-28T05:38:57.068Z,30.77
2019-04-28T05:43:59.640Z,27.20
2019-04-28T05:49:15.567Z,25.13
2019-04-28T05:54:31.220Z,22.40
2019-04-28T05:59:50.565Z,22.17
2019-04-28T06:04:52.504Z,22.17
2019-04-28T06:09:55.351Z,23.00
2019-04-28T06:14:56.957Z,24.10
2019-04-28T06:20:00.175Z,23.90
2019-04-28T06:25:03.602Z,23.13
2019-04-28T06:30:06.906Z,24.40
2019-04-28T06:35:08.843Z,24.67
2019-04-28T06:40:12.234Z,22.93
2019-04-28T06:45:14.152Z,22.33
2019-04-28T06:50:22.895Z,24.73
2019-04-28T06:55:24.743Z,24.57
2019-04-28T07:00:26.658Z,24.90
2019-04-28T07:05:28.264Z,24.37
2019-04-28T07:10:30.078Z,24.17
2019-04-28T07:15:31.752Z,24.07
2019-04-28T07:20:45.615Z,28.37
2019-04-28T07:25:47.332Z,26.13
2019-04-28T07:30:49.460Z,24.80
2019-04-28T07:35:51.175Z,22.77
2019-04-28T07:40:52.874Z,25.47
2019-04-28T07:45:54.545Z,23.70
2019-04-28T07:50:56.222Z,30.27
2019-04-28T07:55:58.038Z,24.50
2019-04-28T08:01:00.015Z,25.60
2019-04-28T08:06:01.719Z,25.33
2019-04-28T08:11:03.826Z,26.93
2019-04-28T08:16:06.824Z,28.90
2019-04-28T08:21:08.414Z,28.80
2019-04-28T08:26:10.109Z,30.53
2019-04-28T08:31:13.675Z,31.47
2019-04-28T08:36:15.282Z,35.40
2019-04-28T08:41:17.000Z,38.07
2019-04-28T08:46:18.654Z,36.07
2019-04-28T08:51:20.437Z,36.77
2019-04-28T08:56:22.151Z,35.93
2019-04-28T09:01:24.126Z,35.53
2019-04-28T09:06:25.842Z,35.40
2019-04-28T09:11:27.452Z,30.23
2019-04-28T09:16:29.104Z,29.63
2019-04-28T09:21:30.851Z,30.43
2019-04-28T09:26:32.562Z,27.70
2019-04-28T09:31:34.326Z,26.30
2019-04-28T09:36:35.942Z,27.83
2019-04-28T09:41:39.580Z,28.67
2019-04-28T09:46:43.087Z,28.67
2019-04-28T09:51:51.693Z,26.73
2019-04-28T09:56:56.875Z,21.57
2019-04-28T10:01:57.208Z,23.23
2019-04-28T10:06:58.923Z,20.93
2019-04-28T10:12:00.639Z,19.13
2019-04-28T10:17:02.943Z,19.13
2019-04-28T10:22:05.245Z,18.43
2019-04-28T10:27:07.858Z,20.07
2019-04-28T10:32:09.488Z,18.73
2019-04-28T10:37:11.200Z,18.40
2019-04-28T10:42:12.914Z,18.57
2019-04-28T10:47:16.127Z,16.50
2019-04-28T10:52:18.042Z,17.03
2019-04-28T10:57:19.649Z,16.20
2019-04-28T11:02:21.423Z,16.97
2019-04-28T11:07:23.446Z,18.30
2019-04-28T11:12:29.924Z,18.10
2019-04-28T11:17:31.532Z,19.03
2019-04-28T11:22:33.289Z,19.10
2019-04-28T11:27:35.306Z,18.17
2019-04-28T11:32:38.925Z,18.03
2019-04-28T11:37:40.736Z,18.27
2019-04-28T11:42:42.459Z,16.77
2019-04-28T11:47:44.349Z,17.07
2019-04-28T11:52:56.174Z,15.43
2019-04-28T11:58:09.591Z,16.30
2019-04-28T12:03:24.166Z,16.30
2019-04-28T12:08:26.302Z,17.43
2019-04-28T12:15:40.541Z,17.47
2019-04-28T12:20:42.255Z,15.93
2019-04-28T12:25:43.991Z,14.70
2019-04-28T12:30:46.142Z,13.60
2019-04-28T12:35:48.357Z,13.77
2019-04-28T12:40:50.522Z,14.17
2019-04-28T12:45:52.209Z,12.77
2019-04-28T12:50:54.106Z,15.07
2019-04-28T12:55:56.135Z,13.40
2019-04-28T13:01:18.179Z,15.63
2019-04-28T13:06:21.877Z,15.90
2019-04-28T13:11:23.374Z,15.60
2019-04-28T13:16:24.978Z,16.87
2019-04-28T13:21:26.673Z,16.70
2019-04-28T13:26:28.298Z,16.00
2019-04-28T13:31:29.833Z,16.10
2019-04-28T13:36:31.316Z,17.27
2019-04-28T13:41:33.060Z,16.23
2019-04-28T13:46:34.768Z,19.57
2019-04-28T13:51:36.397Z,20.60
2019-04-28T13:56:38.231Z,19.43
2019-04-28T14:01:42.890Z,19.40
2019-04-28T14:06:46.429Z,19.80
2019-04-28T14:11:48.093Z,18.83
2019-04-28T14:16:49.676Z,19.73
2019-04-28T14:21:51.232Z,19.13
2019-04-28T14:26:53.036Z,19.17
2019-04-28T14:31:54.683Z,19.87
2019-04-28T14:36:56.234Z,17.77
2019-04-28T14:41:57.835Z,18.97
2019-04-28T14:46:59.471Z,18.00
2019-04-28T14:52:01.252Z,16.90
2019-04-28T14:57:03.252Z,17.00
2019-04-28T15:02:22.433Z,17.40
2019-04-28T15:07:38.108Z,17.13
2019-04-28T15:12:40.122Z,17.40
2019-04-28T15:17:41.626Z,18.37
2019-04-28T15:22:43.360Z,18.07
2019-04-28T15:27:45.166Z,16.17
2019-04-28T15:32:46.768Z,17.00
2019-04-28T15:37:48.556Z,16.93
2019-04-28T15:42:50.175Z,18.30
2019-04-28T15:47:52.286Z,18.30
2019-04-28T15:52:54.295Z,22.30
2019-04-28T15:57:55.974Z,22.33
2019-04-28T16:02:57.479Z,20.20
2019-04-28T16:07:59.009Z,21.03
2019-04-28T16:13:00.511Z,19.27
2019-04-28T16:18:02.035Z,17.20
2019-04-28T16:23:04.761Z,15.53
2019-04-28T16:28:06.359Z,14.93
2019-04-28T16:33:07.917Z,26.73
2019-04-28T16:38:09.602Z,16.67
2019-04-28T16:43:18.470Z,19.13
2019-04-28T16:48:19.974Z,19.90
2019-04-28T16:53:21.589Z,23.30
2019-04-28T16:58:41.832Z,22.10
2019-04-28T17:03:43.701Z,22.17
2019-04-28T17:08:45.210Z,18.57
2019-04-28T17:13:47.201Z,20.43
2019-04-28T17:18:48.848Z,21.97
2019-04-28T17:23:51.553Z,20.07
2019-04-28T17:28:53.610Z,20.13
2019-04-28T17:33:55.368Z,21.57
2019-04-28T17:38:58.067Z,22.53
2019-04-28T17:43:59.662Z,23.27
2019-04-28T17:49:01.832Z,23.37
2019-04-28T17:54:04.745Z,23.20
2019-04-28T17:59:06.321Z,20.20
2019-04-28T18:04:26.684Z,21.97
2019-04-28T18:09:29.167Z,23.23
2019-04-28T18:14:31.487Z,24.97
2019-04-28T18:19:33.599Z,24.57
2019-04-28T18:24:35.596Z,25.43
2019-04-28T18:29:37.376Z,25.70
2019-04-28T18:34:40.804Z,24.60
2019-04-28T18:40:02.445Z,29.73
2019-04-28T18:45:06.019Z,45.07
2019-04-28T18:50:08.213Z,24.23
2019-04-28T18:55:10.807Z,24.97
2019-04-28T19:00:13.598Z,24.60
2019-04-28T19:05:15.686Z,27.20
2019-04-28T19:10:19.311Z,25.03
2019-04-28T19:15:22.910Z,23.63
2019-04-28T19:20:24.596Z,22.10
2019-04-28T19:25:26.390Z,23.20
2019-04-28T19:30:27.864Z,23.37
2019-04-28T19:35:29.439Z,22.73
2019-04-28T19:40:31.292Z,22.87
2019-04-28T19:45:34.878Z,21.80
2019-04-28T19:50:36.443Z,21.07
2019-04-28T19:55:39.924Z,22.13
2019-04-28T20:01:00.077Z,21.47
2019-04-28T20:06:01.685Z,18.27
2019-04-28T20:11:03.465Z,19.20
2019-04-28T20:16:05.039Z,16.77
2019-04-28T20:21:06.712Z,17.90
2019-04-28T20:26:08.603Z,18.00
2019-04-28T20:31:10.294Z,17.53
2019-04-28T20:36:22.489Z,16.50
2019-04-28T20:41:26.130Z,17.67
2019-04-28T20:46:28.707Z,17.37
2019-04-28T20:51:30.287Z,17.20
2019-04-28T20:56:31.871Z,17.90
2019-04-28T21:01:33.506Z,17.60
2019-04-28T21:06:35.137Z,18.27
2019-04-28T21:11:36.677Z,16.43
2019-04-28T21:16:38.199Z,17.80
2019-04-28T21:21:39.700Z,17.60
2019-04-28T21:26:41.451Z,17.50
2019-04-28T21:31:42.932Z,16.73
2019-04-28T21:36:44.512Z,16.67
2019-04-28T21:41:46.053Z,15.60
2019-04-28T21:46:49.526Z,16.50
2019-04-28T21:51:51.002Z,14.60
2019-04-28T21:56:52.495Z,16.53
2019-04-28T22:01:54.375Z,15.40
2019-04-28T22:06:56.460Z,16.27
2019-04-28T22:11:58.028Z,15.33
2019-04-28T22:16:59.764Z,15.47
2019-04-28T22:22:01.239Z,14.73
2019-04-28T22:27:03.233Z,17.23
2019-04-28T22:32:04.699Z,15.97
2019-04-28T22:37:06.385Z,17.87
2019-04-28T22:42:08.174Z,18.07
2019-04-28T22:47:09.834Z,16.73
2019-04-28T22:52:11.346Z,17.20
2019-04-28T22:57:17.466Z,13.90
2019-04-28T23:02:20.949Z,15.20
2019-04-28T23:07:22.933Z,15.47
2019-04-28T23:12:24.570Z,14.13
2019-04-28T23:17:26.299Z,13.80
2019-04-28T23:22:46.225Z,13.60
2019-04-28T23:27:39.122Z,13.03
2019-04-28T23:32:40.596Z,11.00
2019-04-28T23:37:42.421Z,10.33
2019-04-28T23:42:45.807Z,10.03
2019-04-28T23:47:47.330Z,10.67
2019-04-28T23:52:53.690Z,9.80
2019-04-28T23:57:55.166Z,8.77
